Albany, New York
Traffic Map
Current Weather Conditions
Albany, New York
Broken Clouds
Broken Clouds
30°
Feels Like: 30°
Wind Chill: 30° Ceiling: 13000
Heat Index: 30° Visibility: 10mi
Dew Point: 17° Wind: 3mph
Humidity: 59% Direction: 360° (N)
Pressure: 29.99in Gusts: 0mph
Raw Report DataKALB 112351Z 36003KT 10SM FEW050 SCT120 BKN130 M01/M08 A2999 RMK AO2 SLP159 4/001 60000 T10111083 10006 21017 58005
Traffic Incident Summary
Active as of:
Severity:
Category:
InformationThere was an issue retrieving the traffic information for this location. Please try a different location or try again shortly.
Advertisements